Flight Track Log - Related Links

Times and Time Zones

All times are in EDT time to prevent confusion due to time zone crossing. See the SWA1707 flight status page for this flight to view local times or setup timezone preferences in your user account.

Time Position Orientation Groundspeed Altitude Reporting Facility
EDT Latitude Longitude Course Direction KTS MPH feet Rate Location/Type
Fri 10:44:25 PM 32.8667 -96.8667 301° West 149 171 1,300  Level Dallas / Fort Worth TRACON
Fri 10:45:07 PM 32.8833 -96.9000 301° West 201 231 2,800 2,294 Climbing Dallas / Fort Worth TRACON
Fri 10:46:07 PM 32.9167 -96.9667 301° West 253 291 5,200 2,900 Climbing Dallas / Fort Worth TRACON
Fri 10:47:07 PM 32.9000 -97.0500 257° West 260 299 8,600 2,777 Climbing Dallas / Fort Worth TRACON
Fri 10:49:02 PM 32.8958 -97.2378 269° West 305 351 13,300 2,469 Climbing Fort Worth Center
Fri 10:50:02 PM 32.8897 -97.3417 266° West 315 362 15,800 2,300 Climbing Fort Worth Center
Fri 10:51:02 PM 32.8833 -97.4531 266° West 332 382 17,900 1,950 Climbing Fort Worth Center
Fri 10:52:02 PM 32.8772 -97.5594 266° West 332 382 19,700 2,150 Climbing Fort Worth Center
Fri 10:53:02 PM 32.8686 -97.6806 265° West 349 402 22,200 2,150 Climbing Fort Worth Center
Fri 10:54:02 PM 32.8642 -97.7844 267° West 354 407 24,000 1,750 Climbing Fort Worth Center
Fri 10:55:02 PM 32.8742 -97.9131 275° West 354 407 25,700 1,800 Climbing Fort Worth Center
Fri 10:56:02 PM 32.9092 -98.0147 292° West 369 425 27,600 1,500 Climbing Fort Worth Center
Fri 10:57:02 PM 32.9544 -98.1439 293° West 374 430 28,700 1,150 Climbing Fort Worth Center
Fri 10:58:02 PM 32.9933 -98.2531 293° West 385 443 29,900 1,450 Climbing Fort Worth Center
Fri 10:59:02 PM 33.0383 -98.3847 292° West 392 451 31,600 1,550 Climbing Fort Worth Center
Fri 11:00:02 PM 33.0772 -98.4894 294° West 392 451 33,000 1,300 Climbing Fort Worth Center
Fri 11:01:02 PM 33.1200 -98.6064 294° West 392 451 34,200 1,200 Climbing Fort Worth Center
Fri 11:02:02 PM 33.1564 -98.7186 291° West 392 451 35,400 850 Climbing Fort Worth Center
Fri 11:03:02 PM 33.1969 -98.8308 293° West 379 436 35,900 250 Climbing Fort Worth Center
Fri 11:04:02 PM 33.2353 -98.9483 291° West 374 430 35,900  Level Fort Worth Center
Fri 11:05:02 PM 33.2753 -99.0658 292° West 374 430 35,900  Level Fort Worth Center
Fri 11:06:02 PM 33.3178 -99.1808 294° West 374 430 35,900  Level Fort Worth Center
Fri 11:07:02 PM 33.3578 -99.2961 293° West 374 430 35,900  Level Fort Worth Center
Fri 11:08:02 PM 33.3975 -99.4189 291° West 374 430 35,900  Level Fort Worth Center
Fri 11:09:02 PM 33.4394 -99.5369 293° West 379 436 35,900  Level Fort Worth Center
Fri 11:10:02 PM 33.4792 -99.6572 292° West 384 442 35,900  Level Fort Worth Center
Fri 11:11:02 PM 33.5206 -99.7806 292° West 389 448 35,900  Level Fort Worth Center
Fri 11:12:02 PM 33.5600 -99.8986 292° West 389 448 35,900  Level Fort Worth Center
Fri 11:13:02 PM 33.6014 -100.0244 292° West 389 448 35,900  Level Fort Worth Center
Fri 11:14:02 PM 33.6406 -100.1431 292° West 389 448 35,900  Level Fort Worth Center
Fri 11:15:02 PM 33.6817 -100.2642 292° West 389 448 35,900  Level Fort Worth Center
Fri 11:16:02 PM 33.7228 -100.3878 292° West 394 453 35,900  Level Fort Worth Center
Fri 11:17:02 PM 33.7636 -100.5092 292° West 394 453 35,900  Level Fort Worth Center
Fri 11:18:02 PM 33.8022 -100.6353 290° West 394 453 35,900  Level Fort Worth Center
Fri 11:19:02 PM 33.8428 -100.7569 292° West 394 453 35,900  Level Fort Worth Center
Fri 11:20:02 PM 33.8831 -100.8836 291° West 399 459 35,900  Level Fort Worth Center
Fri 11:21:02 PM 33.9236 -101.0053 292° West 399 459 35,900  Level Fort Worth Center
Fri 11:22:02 PM 33.9694 -101.1500 291° West 406 467 35,900  Level Fort Worth Center
Fri 11:23:02 PM 34.0092 -101.2769 291° West 411 473 35,900  Level Fort Worth Center
Fri 11:24:02 PM 34.0492 -101.4042 291° West 411 473 35,900  Level Fort Worth Center
Fri 11:25:02 PM 34.0889 -101.5286 291° West 411 473 35,900  Level Fort Worth Center
Fri 11:26:02 PM 34.1286 -101.6536 291° West 411 473 35,900  Level Fort Worth Center
Fri 11:27:02 PM 34.1697 -101.7886 290° West 416 479 35,900  Level Fort Worth Center
Fri 11:28:02 PM 34.2092 -101.9136 291° West 416 479 35,900  Level Fort Worth Center
Fri 11:30:21 PM 34.2986 -102.1986 291° West 415 478 35,900  Level Albuquerque Center
Fri 11:31:22 PM 34.3403 -102.3306 291° West 419 482 35,900  Level Albuquerque Center
Fri 11:32:24 PM 34.3797 -102.4625 290° West 417 480 35,900  Level Albuquerque Center
Fri 11:33:25 PM 34.4292 -102.6175 291° West 413 475 35,900  Level Albuquerque Center
Fri 11:34:26 PM 34.4683 -102.7492 290° West 414 476 35,900  Level Albuquerque Center
Fri 11:35:27 PM 34.5003 -102.8631 289° West 407 468 35,900  Level Albuquerque Center
Fri 11:36:28 PM 34.5161 -102.9997 278° West 406 467 35,900  Level Albuquerque Center
Fri 11:37:30 PM 34.5342 -103.1581 278° West 403 464 35,900  Level Albuquerque Center
Fri 11:38:31 PM 34.5503 -103.2931 278° West 402 463 35,900  Level Albuquerque Center
Fri 11:39:32 PM 34.5669 -103.4294 278° West 404 465 35,900  Level Albuquerque Center
Fri 11:40:33 PM 34.5831 -103.5678 278° West 408 470 35,900  Level Albuquerque Center
Fri 11:41:35 PM 34.6133 -103.7039 285° West 412 474 35,900  Level Albuquerque Center
Fri 11:42:36 PM 34.6472 -103.8417 287° West 418 481 35,900  Level Albuquerque Center
Fri 11:43:37 PM 34.6672 -103.9839 280° West 420 483 35,900  Level Albuquerque Center
Fri 11:44:38 PM 34.6883 -104.1283 280° West 427 491 35,900  Level Albuquerque Center
Fri 11:45:39 PM 34.7089 -104.2728 280° West 428 493 35,900 -1,131 Level Albuquerque Center
Fri 11:46:40 PM 34.7292 -104.4178 280° West 429 494 33,600 -2,439 Descending Albuquerque Center
Fri 11:47:42 PM 34.7494 -104.5608 280° West 426 490 30,900 -2,341 Descending Albuquerque Center
Fri 11:48:43 PM 34.7697 -104.7006 280° West 419 482 28,800 -2,115 Descending Albuquerque Center
Fri 11:49:44 PM 34.7892 -104.8383 280° West 411 473 26,600 -2,115 Descending Albuquerque Center
Fri 11:50:45 PM 34.8064 -104.9719 279° West 403 464 24,500 -2,016 Descending Albuquerque Center
Fri 11:51:46 PM 34.8256 -105.0992 280° West 386 444 22,500 -1,967 Descending Albuquerque Center
Fri 11:52:47 PM 34.8411 -105.2261 279° West 379 436 20,500 -1,918 Descending Albuquerque Center
Fri 11:53:48 PM 34.8592 -105.3533 280° West 377 434 18,600 -1,721 Descending Albuquerque Center
Fri 11:54:49 PM 34.8758 -105.4728 280° West 362 417 17,000 -1,328 Descending Albuquerque Center
Fri 11:55:50 PM 34.8903 -105.5897 279° West 351 404 15,900 -805 Descending Albuquerque Center
Fri 11:56:11 PM 34.8936 -105.6356 275° West 341 392 15,900  Level Albuquerque Center
Fri 11:56:51 PM 34.9069 -105.7039 283° West 343 395 15,900 98 Level Albuquerque Center
Fri 11:57:12 PM 34.9117 -105.7581 276° West 339 390 16,000  Climbing Albuquerque Center
Fri 11:57:52 PM 34.9206 -105.8197 280° West 343 395 15,900  Descending Albuquerque Center
Fri 11:58:12 PM 34.9242 -105.8739 275° West 346 398 16,000  Climbing Albuquerque Center
Fri 11:58:53 PM 34.9331 -105.9322 281° West 347 399 15,900 -689 Descending Albuquerque Center
Fri 11:59:13 PM 34.9367 -105.9900 274° West 350 403 15,300 -1,645 Descending Albuquerque Center
Fri 11:59:55 PM 34.9417 -106.0486 276° West 346 398 14,200 -1,748 Descending Albuquerque Center
Sat 12:00:56 AM 34.9483 -106.1628 274° West 340 391 12,300 -1,433 Descending Albuquerque Center
Sat 12:02:09 AM 34.9572 -106.3192 274° West 327 376 11,000 -1,082 Descending Albuquerque Center
Sat 12:02:58 AM 34.9517 -106.4006 265° West 317 365 10,100 -1,036 Descending Albuquerque Center
Sat 12:03:59 AM 34.9331 -106.4958 257° West 301 346 9,100 -1,131 Descending Albuquerque Center
Sat 12:05:00 AM 34.9164 -106.5883 258° West 289 333 7,800 -836 Descending Albuquerque Center
Sat 12:06:01 AM 34.9006 -106.6725 257° West 270 311 7,400 -312 Descending Albuquerque Center
Sat 12:06:17 AM 34.8969 -106.6922 257° West 239 275 7,400  Level Albuquerque Center
Sat 12:07:02 AM 34.9094 -106.7358 289° West 242 278 7,400 98 Level Albuquerque Center
Sat 12:07:18 AM 34.9300 -106.7356 North 207 238 7,500 -295 Climbing Albuquerque Center
Sat 12:08:03 AM 34.9603 -106.7058 39° Northeast 226 260 7,100 -700 Descending Albuquerque Center
Sat 12:08:18 AM 34.9733 -106.6908 43° Northeast 206 237 6,800 -1,026 Descending Albuquerque Center
Sat 12:09:19 AM 35.0067 -106.6486 46° Northeast 168 193 5,800 -785 Descending Albuquerque Center
Sat 12:10:05 AM 35.0317 -106.6183 45° Northeast 185 213 5,400 -522 Descending Albuquerque Center
Sat 12:12:00 AM 35.0333 -106.6000 90° East  Level FlightAware Approximate

Login

Don't have an account? Register now (free) for customized features, flight alerts, and more!